sensor_id;sensor_type;location;lat;lon;timestamp;P1;durP1;ratioP1;P2;durP2;ratioP2
61741;SDS011;47650;49.848;9.620;2022-08-20T00:00:19;9.15;;;5.95;;
61741;SDS011;47650;49.848;9.620;2022-08-20T00:02:48;6.55;;;5.95;;
61741;SDS011;47650;49.848;9.620;2022-08-20T00:05:19;6.32;;;5.80;;
61741;SDS011;47650;49.848;9.620;2022-08-20T00:07:47;6.55;;;5.70;;
61741;SDS011;47650;49.848;9.620;2022-08-20T00:10:19;6.45;;;5.80;;
61741;SDS011;47650;49.848;9.620;2022-08-20T00:12:52;5.95;;;5.45;;
61741;SDS011;47650;49.848;9.620;2022-08-20T00:15:19;5.97;;;5.47;;
61741;SDS011;47650;49.848;9.620;2022-08-20T00:17:48;6.13;;;5.15;;
61741;SDS011;47650;49.848;9.620;2022-08-20T00:20:18;6.70;;;5.90;;
61741;SDS011;47650;49.848;9.620;2022-08-20T00:22:45;7.22;;;5.63;;
61741;SDS011;47650;49.848;9.620;2022-08-20T00:25:13;8.05;;;6.20;;
61741;SDS011;47650;49.848;9.620;2022-08-20T00:30:10;6.45;;;5.88;;
61741;SDS011;47650;49.848;9.620;2022-08-20T00:32:46;6.20;;;5.70;;
61741;SDS011;47650;49.848;9.620;2022-08-20T00:35:24;6.18;;;5.68;;
61741;SDS011;47650;49.848;9.620;2022-08-20T00:37:51;6.50;;;6.00;;
61741;SDS011;47650;49.848;9.620;2022-08-20T00:40:19;6.88;;;6.25;;
61741;SDS011;47650;49.848;9.620;2022-08-20T00:42:50;8.70;;;6.20;;
61741;SDS011;47650;49.848;9.620;2022-08-20T00:45:21;7.85;;;7.05;;
61741;SDS011;47650;49.848;9.620;2022-08-20T00:47:50;7.18;;;6.53;;
61741;SDS011;47650;49.848;9.620;2022-08-20T00:50:18;7.07;;;6.38;;
61741;SDS011;47650;49.848;9.620;2022-08-20T00:52:46;6.90;;;6.30;;
61741;SDS011;47650;49.848;9.620;2022-08-20T00:55:15;8.13;;;7.32;;
61741;SDS011;47650;49.848;9.620;2022-08-20T00:57:42;8.10;;;7.13;;
61741;SDS011;47650;49.848;9.620;2022-08-20T01:00:17;7.78;;;7.00;;
61741;SDS011;47650;49.848;9.620;2022-08-20T01:02:47;8.27;;;7.18;;
61741;SDS011;47650;49.848;9.620;2022-08-20T01:05:15;7.72;;;7.00;;
61741;SDS011;47650;49.848;9.620;2022-08-20T01:07:40;7.25;;;6.55;;
61741;SDS011;47650;49.848;9.620;2022-08-20T01:10:13;8.90;;;7.38;;
61741;SDS011;47650;49.848;9.620;2022-08-20T01:12:41;8.15;;;7.45;;
61741;SDS011;47650;49.848;9.620;2022-08-20T01:15:12;7.63;;;6.93;;
61741;SDS011;47650;49.848;9.620;2022-08-20T01:17:42;8.48;;;7.70;;
61741;SDS011;47650;49.848;9.620;2022-08-20T01:20:19;9.93;;;7.65;;
61741;SDS011;47650;49.848;9.620;2022-08-20T01:22:53;7.93;;;7.22;;
61741;SDS011;47650;49.848;9.620;2022-08-20T01:25:57;8.73;;;7.88;;
61741;SDS011;47650;49.848;9.620;2022-08-20T01:28:40;9.43;;;7.20;;
61741;SDS011;47650;49.848;9.620;2022-08-20T01:31:13;10.23;;;7.10;;
61741;SDS011;47650;49.848;9.620;2022-08-20T01:33:41;10.18;;;7.05;;
61741;SDS011;47650;49.848;9.620;2022-08-20T01:36:08;7.15;;;6.55;;
61741;SDS011;47650;49.848;9.620;2022-08-20T01:38:37;8.63;;;7.68;;
61741;SDS011;47650;49.848;9.620;2022-08-20T01:41:18;8.32;;;7.55;;
61741;SDS011;47650;49.848;9.620;2022-08-20T01:43:54;8.60;;;7.22;;
61741;SDS011;47650;49.848;9.620;2022-08-20T01:46:26;8.00;;;7.15;;
61741;SDS011;47650;49.848;9.620;2022-08-20T01:48:57;7.90;;;6.28;;
61741;SDS011;47650;49.848;9.620;2022-08-20T01:51:29;7.68;;;6.97;;
61741;SDS011;47650;49.848;9.620;2022-08-20T01:53:55;9.43;;;7.75;;
61741;SDS011;47650;49.848;9.620;2022-08-20T01:56:27;7.32;;;6.65;;
61741;SDS011;47650;49.848;9.620;2022-08-20T01:59:04;7.60;;;6.90;;
61741;SDS011;47650;49.848;9.620;2022-08-20T02:03:59;8.55;;;7.18;;
61741;SDS011;47650;49.848;9.620;2022-08-20T02:06:26;7.00;;;6.35;;
61741;SDS011;47650;49.848;9.620;2022-08-20T02:08:55;7.35;;;6.65;;
61741;SDS011;47650;49.848;9.620;2022-08-20T02:11:22;7.97;;;7.35;;
61741;SDS011;47650;49.848;9.620;2022-08-20T02:13:50;8.55;;;7.75;;
61741;SDS011;47650;49.848;9.620;2022-08-20T02:16:18;8.13;;;7.43;;
61741;SDS011;47650;49.848;9.620;2022-08-20T02:19:23;7.82;;;7.07;;
61741;SDS011;47650;49.848;9.620;2022-08-20T02:21:56;9.15;;;8.32;;
61741;SDS011;47650;49.848;9.620;2022-08-20T02:24:23;11.20;;;10.13;;
61741;SDS011;47650;49.848;9.620;2022-08-20T02:26:49;9.65;;;8.75;;
61741;SDS011;47650;49.848;9.620;2022-08-20T02:29:16;8.38;;;7.68;;
61741;SDS011;47650;49.848;9.620;2022-08-20T02:31:43;9.65;;;7.25;;
61741;SDS011;47650;49.848;9.620;2022-08-20T02:34:10;8.27;;;7.38;;
61741;SDS011;47650;49.848;9.620;2022-08-20T02:36:38;8.55;;;6.75;;
61741;SDS011;47650;49.848;9.620;2022-08-20T02:39:04;8.48;;;7.45;;
61741;SDS011;47650;49.848;9.620;2022-08-20T02:41:33;8.77;;;7.97;;
61741;SDS011;47650;49.848;9.620;2022-08-20T02:44:06;8.65;;;7.60;;
61741;SDS011;47650;49.848;9.620;2022-08-20T02:46:32;9.35;;;8.07;;
61741;SDS011;47650;49.848;9.620;2022-08-20T02:48:59;7.72;;;7.13;;
61741;SDS011;47650;49.848;9.620;2022-08-20T02:51:25;8.43;;;7.63;;
61741;SDS011;47650;49.848;9.620;2022-08-20T02:53:51;7.93;;;7.13;;
61741;SDS011;47650;49.848;9.620;2022-08-20T02:56:17;8.13;;;7.05;;
61741;SDS011;47650;49.848;9.620;2022-08-20T02:58:43;11.70;;;7.43;;
61741;SDS011;47650;49.848;9.620;2022-08-20T03:01:10;8.68;;;7.88;;
61741;SDS011;47650;49.848;9.620;2022-08-20T03:03:38;9.40;;;8.20;;
61741;SDS011;47650;49.848;9.620;2022-08-20T03:06:04;8.25;;;7.45;;
61741;SDS011;47650;49.848;9.620;2022-08-20T03:08:31;9.55;;;8.68;;
61741;SDS011;47650;49.848;9.620;2022-08-20T03:10:57;8.27;;;7.47;;
61741;SDS011;47650;49.848;9.620;2022-08-20T03:13:23;12.25;;;8.52;;
61741;SDS011;47650;49.848;9.620;2022-08-20T03:15:51;9.63;;;8.65;;
61741;SDS011;47650;49.848;9.620;2022-08-20T03:18:21;9.65;;;8.05;;
61741;SDS011;47650;49.848;9.620;2022-08-20T03:20:47;12.82;;;8.70;;
61741;SDS011;47650;49.848;9.620;2022-08-20T03:23:15;10.45;;;9.52;;
61741;SDS011;47650;49.848;9.620;2022-08-20T03:25:41;9.52;;;8.63;;
61741;SDS011;47650;49.848;9.620;2022-08-20T03:28:06;9.60;;;8.70;;
61741;SDS011;47650;49.848;9.620;2022-08-20T03:30:34;9.68;;;8.77;;
61741;SDS011;47650;49.848;9.620;2022-08-20T03:33:03;10.10;;;8.73;;
61741;SDS011;47650;49.848;9.620;2022-08-20T03:35:29;9.40;;;8.38;;
61741;SDS011;47650;49.848;9.620;2022-08-20T03:37:56;9.50;;;8.68;;
61741;SDS011;47650;49.848;9.620;2022-08-20T03:40:25;10.15;;;9.25;;
61741;SDS011;47650;49.848;9.620;2022-08-20T03:42:52;13.20;;;9.85;;
61741;SDS011;47650;49.848;9.620;2022-08-20T03:45:19;10.80;;;9.75;;
61741;SDS011;47650;49.848;9.620;2022-08-20T03:47:46;10.70;;;9.80;;
61741;SDS011;47650;49.848;9.620;2022-08-20T03:50:12;11.77;;;10.05;;
61741;SDS011;47650;49.848;9.620;2022-08-20T03:52:38;10.98;;;8.70;;
61741;SDS011;47650;49.848;9.620;2022-08-20T03:55:06;10.82;;;8.55;;
61741;SDS011;47650;49.848;9.620;2022-08-20T03:57:33;14.45;;;9.85;;
61741;SDS011;47650;49.848;9.620;2022-08-20T03:59:59;10.50;;;9.50;;
61741;SDS011;47650;49.848;9.620;2022-08-20T04:02:26;11.35;;;9.25;;
61741;SDS011;47650;49.848;9.620;2022-08-20T04:04:54;9.80;;;8.90;;
61741;SDS011;47650;49.848;9.620;2022-08-20T04:07:23;10.32;;;9.15;;
61741;SDS011;47650;49.848;9.620;2022-08-20T04:09:52;9.48;;;8.57;;
61741;SDS011;47650;49.848;9.620;2022-08-20T04:12:21;9.40;;;8.50;;
61741;SDS011;47650;49.848;9.620;2022-08-20T04:14:54;10.23;;;8.65;;
61741;SDS011;47650;49.848;9.620;2022-08-20T04:17:20;10.07;;;8.73;;
61741;SDS011;47650;49.848;9.620;2022-08-20T04:19:46;8.90;;;8.05;;
61741;SDS011;47650;49.848;9.620;2022-08-20T04:22:11;9.48;;;8.48;;
61741;SDS011;47650;49.848;9.620;2022-08-20T04:24:38;9.75;;;8.85;;
61741;SDS011;47650;49.848;9.620;2022-08-20T04:27:07;9.27;;;8.27;;
61741;SDS011;47650;49.848;9.620;2022-08-20T04:29:39;9.82;;;8.68;;
61741;SDS011;47650;49.848;9.620;2022-08-20T04:32:07;10.65;;;9.60;;
61741;SDS011;47650;49.848;9.620;2022-08-20T04:34:33;9.18;;;8.23;;
61741;SDS011;47650;49.848;9.620;2022-08-20T04:36:59;8.63;;;7.93;;
61741;SDS011;47650;49.848;9.620;2022-08-20T04:39:26;9.25;;;7.50;;
61741;SDS011;47650;49.848;9.620;2022-08-20T04:41:51;10.48;;;8.40;;
61741;SDS011;47650;49.848;9.620;2022-08-20T04:44:17;10.50;;;8.25;;
61741;SDS011;47650;49.848;9.620;2022-08-20T04:46:43;9.32;;;8.43;;
61741;SDS011;47650;49.848;9.620;2022-08-20T04:49:08;9.57;;;8.23;;
61741;SDS011;47650;49.848;9.620;2022-08-20T04:51:35;10.05;;;7.90;;
61741;SDS011;47650;49.848;9.620;2022-08-20T04:54:02;9.32;;;8.40;;
61741;SDS011;47650;49.848;9.620;2022-08-20T04:56:30;12.30;;;10.40;;
61741;SDS011;47650;49.848;9.620;2022-08-20T04:59:01;8.88;;;7.95;;
61741;SDS011;47650;49.848;9.620;2022-08-20T05:01:28;9.02;;;7.88;;
61741;SDS011;47650;49.848;9.620;2022-08-20T05:03:55;8.45;;;7.22;;
61741;SDS011;47650;49.848;9.620;2022-08-20T05:06:23;8.85;;;7.72;;
61741;SDS011;47650;49.848;9.620;2022-08-20T05:08:54;8.55;;;7.80;;
61741;SDS011;47650;49.848;9.620;2022-08-20T05:11:20;14.00;;;12.65;;
61741;SDS011;47650;49.848;9.620;2022-08-20T05:13:47;8.50;;;7.70;;
61741;SDS011;47650;49.848;9.620;2022-08-20T05:16:12;8.15;;;7.35;;
61741;SDS011;47650;49.848;9.620;2022-08-20T05:18:39;8.65;;;7.85;;
61741;SDS011;47650;49.848;9.620;2022-08-20T05:21:04;10.25;;;8.10;;
61741;SDS011;47650;49.848;9.620;2022-08-20T05:23:35;8.75;;;7.43;;
61741;SDS011;47650;49.848;9.620;2022-08-20T05:26:09;7.72;;;6.95;;
61741;SDS011;47650;49.848;9.620;2022-08-20T05:28:36;11.25;;;7.63;;
61741;SDS011;47650;49.848;9.620;2022-08-20T05:31:03;9.82;;;7.70;;
61741;SDS011;47650;49.848;9.620;2022-08-20T05:33:33;8.02;;;7.22;;
61741;SDS011;47650;49.848;9.620;2022-08-20T05:35:59;10.35;;;8.90;;
61741;SDS011;47650;49.848;9.620;2022-08-20T05:38:28;9.30;;;8.48;;
61741;SDS011;47650;49.848;9.620;2022-08-20T05:40:54;9.32;;;7.75;;
61741;SDS011;47650;49.848;9.620;2022-08-20T05:43:21;8.48;;;7.50;;
61741;SDS011;47650;49.848;9.620;2022-08-20T05:45:47;7.78;;;7.18;;
61741;SDS011;47650;49.848;9.620;2022-08-20T05:48:26;10.00;;;7.53;;
61741;SDS011;47650;49.848;9.620;2022-08-20T05:50:52;8.02;;;7.25;;
61741;SDS011;47650;49.848;9.620;2022-08-20T05:53:20;7.38;;;6.55;;
61741;SDS011;47650;49.848;9.620;2022-08-20T05:55:46;10.20;;;6.72;;
61741;SDS011;47650;49.848;9.620;2022-08-20T05:58:17;7.07;;;6.38;;
61741;SDS011;47650;49.848;9.620;2022-08-20T06:00:49;8.05;;;6.50;;
61741;SDS011;47650;49.848;9.620;2022-08-20T06:03:16;9.65;;;6.75;;
61741;SDS011;47650;49.848;9.620;2022-08-20T06:06:00;8.57;;;6.03;;
61741;SDS011;47650;49.848;9.620;2022-08-20T06:08:26;9.30;;;6.75;;
61741;SDS011;47650;49.848;9.620;2022-08-20T06:10:52;8.07;;;6.68;;
61741;SDS011;47650;49.848;9.620;2022-08-20T06:13:18;8.15;;;6.93;;
61741;SDS011;47650;49.848;9.620;2022-08-20T06:15:46;8.05;;;7.03;;
61741;SDS011;47650;49.848;9.620;2022-08-20T06:18:13;7.38;;;6.68;;
61741;SDS011;47650;49.848;9.620;2022-08-20T06:20:39;8.00;;;6.95;;
61741;SDS011;47650;49.848;9.620;2022-08-20T06:23:05;8.10;;;7.30;;
61741;SDS011;47650;49.848;9.620;2022-08-20T06:25:31;8.20;;;7.20;;
61741;SDS011;47650;49.848;9.620;2022-08-20T06:27:59;7.47;;;6.75;;
61741;SDS011;47650;49.848;9.620;2022-08-20T06:30:25;9.45;;;7.53;;
61741;SDS011;47650;49.848;9.620;2022-08-20T06:32:50;8.35;;;6.97;;
61741;SDS011;47650;49.848;9.620;2022-08-20T06:35:18;8.05;;;7.10;;
61741;SDS011;47650;49.848;9.620;2022-08-20T06:37:43;7.78;;;6.55;;
61741;SDS011;47650;49.848;9.620;2022-08-20T06:40:10;7.18;;;6.38;;
61741;SDS011;47650;49.848;9.620;2022-08-20T06:42:41;8.68;;;6.22;;
61741;SDS011;47650;49.848;9.620;2022-08-20T06:45:12;6.70;;;6.10;;
61741;SDS011;47650;49.848;9.620;2022-08-20T06:47:39;7.53;;;6.35;;
61741;SDS011;47650;49.848;9.620;2022-08-20T06:50:07;6.93;;;6.10;;
61741;SDS011;47650;49.848;9.620;2022-08-20T06:52:37;8.63;;;6.80;;
61741;SDS011;47650;49.848;9.620;2022-08-20T06:55:03;9.15;;;6.15;;
61741;SDS011;47650;49.848;9.620;2022-08-20T06:57:37;7.57;;;6.22;;
61741;SDS011;47650;49.848;9.620;2022-08-20T07:00:04;7.78;;;5.60;;
61741;SDS011;47650;49.848;9.620;2022-08-20T07:02:31;8.13;;;6.63;;
61741;SDS011;47650;49.848;9.620;2022-08-20T07:05:04;7.40;;;6.03;;
61741;SDS011;47650;49.848;9.620;2022-08-20T07:07:30;10.00;;;6.28;;
61741;SDS011;47650;49.848;9.620;2022-08-20T07:10:05;7.35;;;6.15;;
61741;SDS011;47650;49.848;9.620;2022-08-20T07:12:35;7.57;;;6.40;;
61741;SDS011;47650;49.848;9.620;2022-08-20T07:15:02;6.85;;;6.10;;
61741;SDS011;47650;49.848;9.620;2022-08-20T07:17:28;8.18;;;6.50;;
61741;SDS011;47650;49.848;9.620;2022-08-20T07:19:54;7.28;;;6.57;;
61741;SDS011;47650;49.848;9.620;2022-08-20T07:22:20;7.63;;;6.55;;
61741;SDS011;47650;49.848;9.620;2022-08-20T07:24:46;7.00;;;6.30;;
61741;SDS011;47650;49.848;9.620;2022-08-20T07:27:11;8.23;;;6.40;;
61741;SDS011;47650;49.848;9.620;2022-08-20T07:29:37;7.47;;;6.78;;
61741;SDS011;47650;49.848;9.620;2022-08-20T07:32:33;7.32;;;6.63;;
61741;SDS011;47650;49.848;9.620;2022-08-20T07:34:59;8.30;;;6.88;;
61741;SDS011;47650;49.848;9.620;2022-08-20T07:37:25;8.05;;;7.28;;
61741;SDS011;47650;49.848;9.620;2022-08-20T07:39:50;8.50;;;7.70;;
61741;SDS011;47650;49.848;9.620;2022-08-20T07:42:19;10.25;;;9.27;;
61741;SDS011;47650;49.848;9.620;2022-08-20T07:44:44;10.98;;;9.93;;
61741;SDS011;47650;49.848;9.620;2022-08-20T07:47:18;15.32;;;13.18;;
61741;SDS011;47650;49.848;9.620;2022-08-20T07:49:46;16.42;;;14.75;;
61741;SDS011;47650;49.848;9.620;2022-08-20T07:52:11;19.35;;;14.65;;
61741;SDS011;47650;49.848;9.620;2022-08-20T07:54:37;24.90;;;19.52;;
61741;SDS011;47650;49.848;9.620;2022-08-20T07:57:04;35.70;;;23.52;;
61741;SDS011;47650;49.848;9.620;2022-08-20T07:59:31;31.25;;;24.95;;
61741;SDS011;47650;49.848;9.620;2022-08-20T08:01:57;21.65;;;18.65;;
61741;SDS011;47650;49.848;9.620;2022-08-20T08:04:30;30.60;;;23.05;;
61741;SDS011;47650;49.848;9.620;2022-08-20T08:06:56;27.48;;;22.95;;
61741;SDS011;47650;49.848;9.620;2022-08-20T08:09:29;33.45;;;25.50;;
61741;SDS011;47650;49.848;9.620;2022-08-20T08:11:58;27.77;;;23.30;;
61741;SDS011;47650;49.848;9.620;2022-08-20T08:14:28;25.50;;;21.80;;
61741;SDS011;47650;49.848;9.620;2022-08-20T08:16:58;19.50;;;17.10;;
61741;SDS011;47650;49.848;9.620;2022-08-20T08:19:28;22.55;;;20.25;;
61741;SDS011;47650;49.848;9.620;2022-08-20T08:22:01;19.30;;;17.40;;
61741;SDS011;47650;49.848;9.620;2022-08-20T08:24:30;16.17;;;14.63;;
61741;SDS011;47650;49.848;9.620;2022-08-20T08:26:55;11.90;;;10.75;;
61741;SDS011;47650;49.848;9.620;2022-08-20T08:29:21;12.40;;;11.23;;
61741;SDS011;47650;49.848;9.620;2022-08-20T08:31:47;9.50;;;8.63;;
61741;SDS011;47650;49.848;9.620;2022-08-20T08:34:12;8.98;;;8.15;;
61741;SDS011;47650;49.848;9.620;2022-08-20T08:36:40;9.23;;;8.43;;
61741;SDS011;47650;49.848;9.620;2022-08-20T08:39:08;9.15;;;7.53;;
61741;SDS011;47650;49.848;9.620;2022-08-20T08:41:40;9.05;;;8.20;;
61741;SDS011;47650;49.848;9.620;2022-08-20T08:44:16;9.23;;;8.27;;
61741;SDS011;47650;49.848;9.620;2022-08-20T08:47:11;9.93;;;9.02;;
61741;SDS011;47650;49.848;9.620;2022-08-20T08:49:46;10.10;;;9.18;;
61741;SDS011;47650;49.848;9.620;2022-08-20T08:52:18;9.80;;;8.90;;
61741;SDS011;47650;49.848;9.620;2022-08-20T08:54:46;8.95;;;8.15;;
61741;SDS011;47650;49.848;9.620;2022-08-20T08:57:15;8.75;;;8.00;;
61741;SDS011;47650;49.848;9.620;2022-08-20T08:59:44;8.68;;;7.93;;
61741;SDS011;47650;49.848;9.620;2022-08-20T09:02:19;10.05;;;9.15;;
61741;SDS011;47650;49.848;9.620;2022-08-20T09:04:48;9.98;;;8.98;;
61741;SDS011;47650;49.848;9.620;2022-08-20T09:07:15;9.07;;;8.18;;
61741;SDS011;47650;49.848;9.620;2022-08-20T09:09:42;9.98;;;9.05;;
61741;SDS011;47650;49.848;9.620;2022-08-20T09:12:17;9.25;;;8.40;;
61741;SDS011;47650;49.848;9.620;2022-08-20T09:14:48;9.68;;;8.80;;
61741;SDS011;47650;49.848;9.620;2022-08-20T09:17:15;8.98;;;8.18;;
61741;SDS011;47650;49.848;9.620;2022-08-20T09:19:44;8.85;;;8.05;;
61741;SDS011;47650;49.848;9.620;2022-08-20T09:22:18;10.40;;;9.50;;
61741;SDS011;47650;49.848;9.620;2022-08-20T09:24:49;10.68;;;9.77;;
61741;SDS011;47650;49.848;9.620;2022-08-20T09:27:15;10.07;;;9.18;;
61741;SDS011;47650;49.848;9.620;2022-08-20T09:29:40;10.25;;;9.48;;
61741;SDS011;47650;49.848;9.620;2022-08-20T09:32:07;9.75;;;8.95;;
61741;SDS011;47650;49.848;9.620;2022-08-20T09:34:42;11.50;;;10.60;;
61741;SDS011;47650;49.848;9.620;2022-08-20T09:37:10;10.93;;;10.02;;
61741;SDS011;47650;49.848;9.620;2022-08-20T09:39:35;11.77;;;10.75;;
61741;SDS011;47650;49.848;9.620;2022-08-20T09:42:19;12.00;;;11.00;;
61741;SDS011;47650;49.848;9.620;2022-08-20T09:44:47;11.15;;;10.25;;
61741;SDS011;47650;49.848;9.620;2022-08-20T09:47:13;10.63;;;9.82;;
61741;SDS011;47650;49.848;9.620;2022-08-20T09:49:42;8.60;;;7.82;;
61741;SDS011;47650;49.848;9.620;2022-08-20T09:52:09;8.85;;;8.15;;
61741;SDS011;47650;49.848;9.620;2022-08-20T09:54:45;8.98;;;8.27;;
61741;SDS011;47650;49.848;9.620;2022-08-20T09:57:10;8.30;;;7.60;;
61741;SDS011;47650;49.848;9.620;2022-08-20T09:59:36;8.10;;;7.50;;
61741;SDS011;47650;49.848;9.620;2022-08-20T10:02:08;7.30;;;6.65;;
61741;SDS011;47650;49.848;9.620;2022-08-20T10:04:34;6.43;;;5.95;;
61741;SDS011;47650;49.848;9.620;2022-08-20T10:07:05;6.78;;;6.28;;
61741;SDS011;47650;49.848;9.620;2022-08-20T10:09:32;6.45;;;5.85;;
61741;SDS011;47650;49.848;9.620;2022-08-20T10:11:59;7.55;;;6.90;;
61741;SDS011;47650;49.848;9.620;2022-08-20T10:14:25;7.57;;;7.07;;
61741;SDS011;47650;49.848;9.620;2022-08-20T10:16:54;7.15;;;6.53;;
61741;SDS011;47650;49.848;9.620;2022-08-20T10:19:22;6.43;;;5.93;;
61741;SDS011;47650;49.848;9.620;2022-08-20T10:21:50;6.20;;;5.70;;
61741;SDS011;47650;49.848;9.620;2022-08-20T10:24:16;5.72;;;5.22;;
61741;SDS011;47650;49.848;9.620;2022-08-20T10:26:49;6.28;;;5.78;;
61741;SDS011;47650;49.848;9.620;2022-08-20T10:29:15;5.82;;;5.43;;
61741;SDS011;47650;49.848;9.620;2022-08-20T10:31:41;7.68;;;6.93;;
61741;SDS011;47650;49.848;9.620;2022-08-20T10:34:06;6.55;;;6.05;;
61741;SDS011;47650;49.848;9.620;2022-08-20T10:36:33;6.40;;;5.90;;
61741;SDS011;47650;49.848;9.620;2022-08-20T10:39:01;6.60;;;6.18;;
61741;SDS011;47650;49.848;9.620;2022-08-20T10:41:27;7.03;;;6.32;;
61741;SDS011;47650;49.848;9.620;2022-08-20T10:43:52;7.47;;;6.85;;
61741;SDS011;47650;49.848;9.620;2022-08-20T10:46:20;6.50;;;6.00;;
61741;SDS011;47650;49.848;9.620;2022-08-20T10:48:45;7.47;;;6.63;;
61741;SDS011;47650;49.848;9.620;2022-08-20T10:51:10;6.57;;;6.00;;
61741;SDS011;47650;49.848;9.620;2022-08-20T10:53:42;6.70;;;6.20;;
61741;SDS011;47650;49.848;9.620;2022-08-20T10:56:07;5.00;;;4.60;;
61741;SDS011;47650;49.848;9.620;2022-08-20T10:58:34;7.18;;;6.68;;
61741;SDS011;47650;49.848;9.620;2022-08-20T11:01:00;6.40;;;5.90;;
61741;SDS011;47650;49.848;9.620;2022-08-20T11:03:25;5.83;;;5.20;;
61741;SDS011;47650;49.848;9.620;2022-08-20T11:05:51;4.22;;;3.92;;
61741;SDS011;47650;49.848;9.620;2022-08-20T11:08:17;4.63;;;4.15;;
61741;SDS011;47650;49.848;9.620;2022-08-20T11:10:45;5.00;;;4.70;;
61741;SDS011;47650;49.848;9.620;2022-08-20T11:13:17;4.35;;;3.95;;
61741;SDS011;47650;49.848;9.620;2022-08-20T11:18:18;4.88;;;3.63;;
61741;SDS011;47650;49.848;9.620;2022-08-20T11:20:44;4.57;;;4.28;;
61741;SDS011;47650;49.848;9.620;2022-08-20T11:23:09;4.40;;;4.10;;
61741;SDS011;47650;49.848;9.620;2022-08-20T11:25:35;3.90;;;3.60;;
61741;SDS011;47650;49.848;9.620;2022-08-20T11:28:05;4.05;;;3.75;;
61741;SDS011;47650;49.848;9.620;2022-08-20T11:30:33;4.07;;;3.78;;
61741;SDS011;47650;49.848;9.620;2022-08-20T11:33:02;4.00;;;3.60;;
61741;SDS011;47650;49.848;9.620;2022-08-20T11:35:28;3.58;;;3.30;;
61741;SDS011;47650;49.848;9.620;2022-08-20T11:37:57;3.67;;;3.47;;
61741;SDS011;47650;49.848;9.620;2022-08-20T11:40:25;3.38;;;3.17;;
61741;SDS011;47650;49.848;9.620;2022-08-20T11:42:52;3.22;;;3.00;;
61741;SDS011;47650;49.848;9.620;2022-08-20T11:45:17;3.20;;;2.90;;
61741;SDS011;47650;49.848;9.620;2022-08-20T11:47:42;3.42;;;2.60;;
61741;SDS011;47650;49.848;9.620;2022-08-20T11:50:09;3.35;;;2.70;;
61741;SDS011;47650;49.848;9.620;2022-08-20T11:55:13;2.67;;;2.47;;
61741;SDS011;47650;49.848;9.620;2022-08-20T11:57:41;2.63;;;2.42;;
61741;SDS011;47650;49.848;9.620;2022-08-20T12:00:12;2.65;;;2.45;;
61741;SDS011;47650;49.848;9.620;2022-08-20T12:02:47;2.40;;;2.20;;
61741;SDS011;47650;49.848;9.620;2022-08-20T12:05:15;2.78;;;2.50;;
61741;SDS011;47650;49.848;9.620;2022-08-20T12:07:41;2.30;;;2.10;;
61741;SDS011;47650;49.848;9.620;2022-08-20T12:10:07;2.13;;;2.03;;
61741;SDS011;47650;49.848;9.620;2022-08-20T12:12:35;2.13;;;2.03;;
61741;SDS011;47650;49.848;9.620;2022-08-20T12:15:04;2.38;;;2.17;;
61741;SDS011;47650;49.848;9.620;2022-08-20T12:17:31;2.40;;;2.15;;
61741;SDS011;47650;49.848;9.620;2022-08-20T12:19:58;2.47;;;2.28;;
61741;SDS011;47650;49.848;9.620;2022-08-20T12:22:28;2.28;;;2.08;;
61741;SDS011;47650;49.848;9.620;2022-08-20T12:24:54;2.83;;;2.33;;
61741;SDS011;47650;49.848;9.620;2022-08-20T12:27:24;3.00;;;2.25;;
61741;SDS011;47650;49.848;9.620;2022-08-20T12:29:52;3.03;;;2.83;;
61741;SDS011;47650;49.848;9.620;2022-08-20T12:32:21;3.45;;;3.00;;
61741;SDS011;47650;49.848;9.620;2022-08-20T12:34:49;2.88;;;1.73;;
61741;SDS011;47650;49.848;9.620;2022-08-20T12:37:19;8.52;;;1.88;;
61741;SDS011;47650;49.848;9.620;2022-08-20T12:39:49;1.80;;;1.40;;
61741;SDS011;47650;49.848;9.620;2022-08-20T12:42:25;2.00;;;1.67;;
61741;SDS011;47650;49.848;9.620;2022-08-20T12:44:59;1.85;;;1.75;;
61741;SDS011;47650;49.848;9.620;2022-08-20T12:47:31;2.00;;;1.80;;
61741;SDS011;47650;49.848;9.620;2022-08-20T12:50:01;1.90;;;1.80;;
61741;SDS011;47650;49.848;9.620;2022-08-20T12:52:35;2.13;;;1.92;;
61741;SDS011;47650;49.848;9.620;2022-08-20T12:55:04;2.10;;;1.90;;
61741;SDS011;47650;49.848;9.620;2022-08-20T12:57:41;2.17;;;1.90;;
61741;SDS011;47650;49.848;9.620;2022-08-20T13:00:26;2.40;;;2.20;;
61741;SDS011;47650;49.848;9.620;2022-08-20T13:03:00;2.58;;;2.38;;
61741;SDS011;47650;49.848;9.620;2022-08-20T13:05:28;3.00;;;1.92;;
61741;SDS011;47650;49.848;9.620;2022-08-20T13:07:54;3.28;;;2.00;;
61741;SDS011;47650;49.848;9.620;2022-08-20T13:10:33;3.92;;;2.10;;
61741;SDS011;47650;49.848;9.620;2022-08-20T13:13:00;2.13;;;2.03;;
61741;SDS011;47650;49.848;9.620;2022-08-20T13:15:29;4.47;;;2.22;;
61741;SDS011;47650;49.848;9.620;2022-08-20T13:17:57;2.15;;;1.95;;
61741;SDS011;47650;49.848;9.620;2022-08-20T13:22:55;1.92;;;1.83;;
61741;SDS011;47650;49.848;9.620;2022-08-20T13:25:27;2.20;;;2.00;;
61741;SDS011;47650;49.848;9.620;2022-08-20T13:27:59;2.00;;;1.85;;
61741;SDS011;47650;49.848;9.620;2022-08-20T13:30:26;1.92;;;1.83;;
61741;SDS011;47650;49.848;9.620;2022-08-20T13:32:51;2.05;;;1.85;;
61741;SDS011;47650;49.848;9.620;2022-08-20T13:35:17;3.15;;;1.98;;
61741;SDS011;47650;49.848;9.620;2022-08-20T13:37:54;2.10;;;2.00;;
61741;SDS011;47650;49.848;9.620;2022-08-20T13:40:29;3.22;;;2.15;;
61741;SDS011;47650;49.848;9.620;2022-08-20T13:43:02;2.22;;;2.03;;
61741;SDS011;47650;49.848;9.620;2022-08-20T13:45:28;2.38;;;2.05;;
61741;SDS011;47650;49.848;9.620;2022-08-20T13:47:54;2.30;;;2.10;;
61741;SDS011;47650;49.848;9.620;2022-08-20T13:50:27;3.72;;;2.10;;
61741;SDS011;47650;49.848;9.620;2022-08-20T13:52:55;4.18;;;1.90;;
61741;SDS011;47650;49.848;9.620;2022-08-20T13:55:21;1.88;;;1.77;;
61741;SDS011;47650;49.848;9.620;2022-08-20T13:57:47;2.60;;;1.90;;
61741;SDS011;47650;49.848;9.620;2022-08-20T14:00:15;1.80;;;1.70;;
61741;SDS011;47650;49.848;9.620;2022-08-20T14:02:44;2.08;;;1.80;;
61741;SDS011;47650;49.848;9.620;2022-08-20T14:05:10;2.75;;;1.85;;
61741;SDS011;47650;49.848;9.620;2022-08-20T14:07:37;1.92;;;1.73;;
61741;SDS011;47650;49.848;9.620;2022-08-20T14:10:04;3.30;;;1.60;;
61741;SDS011;47650;49.848;9.620;2022-08-20T14:12:44;2.28;;;1.80;;
61741;SDS011;47650;49.848;9.620;2022-08-20T14:15:10;2.65;;;1.60;;
61741;SDS011;47650;49.848;9.620;2022-08-20T14:17:37;2.03;;;1.73;;
61741;SDS011;47650;49.848;9.620;2022-08-20T14:20:06;1.95;;;1.60;;
61741;SDS011;47650;49.848;9.620;2022-08-20T14:22:37;3.00;;;1.90;;
61741;SDS011;47650;49.848;9.620;2022-08-20T14:25:06;2.90;;;1.80;;
61741;SDS011;47650;49.848;9.620;2022-08-20T14:27:40;2.47;;;1.65;;
61741;SDS011;47650;49.848;9.620;2022-08-20T14:30:08;3.35;;;1.92;;
61741;SDS011;47650;49.848;9.620;2022-08-20T14:32:37;29.83;;;4.00;;
61741;SDS011;47650;49.848;9.620;2022-08-20T14:35:03;11.50;;;5.25;;
61741;SDS011;47650;49.848;9.620;2022-08-20T14:37:33;11.05;;;4.50;;
61741;SDS011;47650;49.848;9.620;2022-08-20T14:40:02;7.33;;;4.10;;
61741;SDS011;47650;49.848;9.620;2022-08-20T14:42:30;12.75;;;4.70;;
61741;SDS011;47650;49.848;9.620;2022-08-20T14:44:55;10.95;;;5.00;;
61741;SDS011;47650;49.848;9.620;2022-08-20T14:47:27;6.65;;;4.25;;
61741;SDS011;47650;49.848;9.620;2022-08-20T14:50:04;7.03;;;4.32;;
61741;SDS011;47650;49.848;9.620;2022-08-20T14:52:35;5.10;;;4.00;;
61741;SDS011;47650;49.848;9.620;2022-08-20T14:55:05;8.52;;;5.80;;
61741;SDS011;47650;49.848;9.620;2022-08-20T14:57:33;15.60;;;7.22;;
61741;SDS011;47650;49.848;9.620;2022-08-20T15:00:00;12.48;;;6.78;;
61741;SDS011;47650;49.848;9.620;2022-08-20T15:02:27;7.38;;;4.82;;
61741;SDS011;47650;49.848;9.620;2022-08-20T15:04:53;15.98;;;6.25;;